Användare: Lösenord: Autologin
+ 1000 kr bonus skattefritt!
+ Bra livemöjligheter
+ Snabba in och utbetalningar
March spreadsheet


Datum & tid Liga Match Insats Odds Rättning Resultat
2018-03-22 23:34 PARLAY: 2 spel parlay 3 2.110 -3
2018-03-22 23:34 ESLLiquid vs Rogue Map 1 0.000
2018-03-22 23:34 ESLOpTic vs RNG Map 1 0.000
2018-03-22 23:34 ESLLiquid vs Rogue Overpass ML 10 1.300 +3
2018-03-22 23:34 ESLOpTic vs RNG Mirage ML 5 1.650 +3.25
2018-03-21 21:20 ESLSpaceSoldiers vs AGO Mirage ML 10 1.400 +4
2018-03-21 18:00 ESLAstralis vs Fnatic Train ML 10 1.600 +6
2018-03-21 17:00 ESLNiP vs HR Inferno ML 1 2.500 -1
2018-03-21 03:00 ESLOpTic vs Splyce 1 ML 10 1.300 +3
2018-03-21 02:00 ESLSplyce vs OpTic 2 ML 10 1.300 +3
2018-03-21 01:00 ESLLiquid vs Luminosity 1 ML 10 1.300 +3
2018-03-21 01:00 ESLRenegades vs eUnited 1 ML 5 1.300 +1.5
2018-03-17 03:00 NHLSacramento Kings vs Golden State Warriors OVER 204 ML 10 1.800 -10
2018-03-17 01:00 NHLBoston Celtics vs Orlando Magic OVER 200 ML 10 1.800 -10
2018-03-16 15:00 X-BETImperial vs Tricked 1 ML 10 1.400 +4
2018-03-16 01:35 NBAPelicans vs Spurs UNDER U 219.5 FT 2 1.950 +1.9
2018-03-16 00:05 NBAPacers vs Raptors 2 ML 10 1.600 +6
2018-03-16 00:05 NBAPacers vs Raptors -4 FT 5 1.900 +4.5
2018-03-15 23:59 ESLLiquid vs Renegades 1 FT 10 1.500 +5
2018-03-15 22:00 ESLFaZe vs Astralis Mirage FT 2 2.150 +2.3
2018-03-15 21:00 ESLAstralis vs FaZe Inferno FT 5 2.100 +5.5
2018-03-15 20:00 ESLGoodJob vs Imperial 2 FT 10 1.220 +2.2
2018-03-15 20:00 ESLMouz vs FaZe Mirage FT 2 1.950 +1.9
2018-03-15 19:15 ESLG2 vs NiP Mirage FT 5 1.950 +4.75
2018-03-15 18:00 ESLAstralis vs North 1 FT 10 1.450 +4.5
2018-03-15 03:05 NBAMiami Heat vs Sacramento Kings ÖVER Ö 208 FT 2 1.900 +1.8
2018-03-15 01:00 NBABoston Celtics vs Washington Wizards +2.5 FT 2 2.500 +3
Visa:Sida:
av 2

Statistik Från start | Detta år | Denna månad | Denna veckan
Visa/Dölj filtrering
Antal spel:41 Insats:274 Vinstprocent:78.05%
Vinster:32 Vunnet:+128.05 Medelodds:1.73
Förluster:9 Förlorat:-51 Medelinsats:6.68
Push:0 Netto:+77.05Medelvinst:+1.88
Levande spel:0 ROI:128.12%
Levande risk:0 Startkassa:0
Levande vinst:0Kassa + netto:77.05
Kassa - risk:77.05
Kassa + levande:77.05

Graf Kassa | Resultat | ROI/Filter

StartsidanHjälpListaBlogglistaSpelschemaForumGlömt lösenordRegistrera

Copyright © 2009-2012 spreadsheet.se